Time;durP1;ratioP1;P1;durP2;ratioP2;P2;SDS_P1;SDS_P2;PMS_P1;PMS_P2;Temp;Humidity;BMP_temperature;BMP_pressure;BME280_temperature;BME280_humidity;BME280_pressure;Samples;Min_cycle;Max_cycle;Signal;HPM_P1;HPM_P2
2023/08/18 00:01:41;;;;;;;0.47;0.47;;;26.80;59.10;;;;;;6311900;22;20197;-86
2023/08/18 00:04:10;;;;;;;0.73;0.73;;;26.70;59.20;;;;;;6311107;22;20184;-87
2023/08/18 00:06:38;;;;;;;0.40;0.40;;;26.70;59.40;;;;;;6316324;22;20548;-85
2023/08/18 00:09:10;;;;;;;3.22;0.93;;;26.70;59.50;;;;;;6308470;22;20158;-86
2023/08/18 00:11:38;;;;;;;0.38;0.38;;;26.70;59.80;;;;;;6309423;22;20176;-87
2023/08/18 00:14:06;;;;;;;2.33;0.77;;;26.70;60.10;;;;;;6310944;22;20494;-87
2023/08/18 00:16:37;;;;;;;0.47;0.47;;;26.60;59.90;;;;;;6310077;22;20177;-84
2023/08/18 00:19:07;;;;;;;0.88;0.77;;;26.60;60.00;;;;;;6309318;22;20243;-88
2023/08/18 00:21:35;;;;;;;1.00;0.90;;;26.60;60.00;;;;;;6309752;22;20165;-86
2023/08/18 00:24:05;;;;;;;0.30;0.30;;;26.60;60.10;;;;;;6282898;22;20519;-87
2023/08/18 00:26:33;;;;;;;0.73;0.57;;;26.60;60.50;;;;;;6310023;22;20165;-86
2023/08/18 00:29:02;;;;;;;0.65;0.65;;;26.60;60.50;;;;;;6283358;22;20207;-87
2023/08/18 00:31:31;;;;;;;38.70;2.33;;;26.60;60.60;;;;;;6310265;22;20179;-86
2023/08/18 00:33:59;;;;;;;1.42;0.82;;;26.60;61.00;;;;;;6309476;22;20223;-86
2023/08/18 00:36:30;;;;;;;0.60;0.60;;;26.60;61.50;;;;;;6310624;22;20168;-85
2023/08/18 00:39:02;;;;;;;1.67;0.70;;;26.60;61.70;;;;;;6309811;22;20167;-87
2023/08/18 00:41:30;;;;;;;1.45;0.60;;;26.50;61.90;;;;;;6284436;22;20165;-85
2023/08/18 00:43:59;;;;;;;1.23;0.75;;;26.50;62.10;;;;;;6309493;22;20184;-87
2023/08/18 00:46:28;;;;;;;0.50;0.43;;;26.50;61.90;;;;;;6311555;22;20173;-87
2023/08/18 00:49:02;;;;;;;0.93;0.50;;;26.50;61.80;;;;;;6309518;22;20165;-88
2023/08/18 00:51:34;;;;;;;0.20;0.20;;;26.50;61.80;;;;;;6310738;22;20153;-88
2023/08/18 00:54:04;;;;;;;0.73;0.55;;;26.50;61.80;;;;;;6308738;22;20161;-87
2023/08/18 00:56:33;;;;;;;1.23;0.82;;;26.50;62.30;;;;;;6313460;22;20233;-86
2023/08/18 00:59:02;;;;;;;3.85;0.90;;;26.50;62.10;;;;;;6310401;22;20619;-86
2023/08/18 01:01:32;;;;;;;0.55;0.40;;;26.40;62.00;;;;;;6311643;22;20169;-86
2023/08/18 01:04:02;;;;;;;0.47;0.30;;;26.50;62.00;;;;;;6310053;22;20177;-87
2023/08/18 01:06:33;;;;;;;0.40;0.40;;;26.40;61.90;;;;;;6284564;22;20216;-87
2023/08/18 01:09:01;;;;;;;1.00;0.70;;;26.50;62.50;;;;;;6312223;22;20169;-87
2023/08/18 01:11:38;;;;;;;1.10;0.93;;;26.50;63.00;;;;;;6311790;22;20176;-88
2023/08/18 01:14:16;;;;;;;1.13;0.47;;;26.50;62.90;;;;;;6307345;22;20171;-87
2023/08/18 01:16:57;;;;;;;0.60;0.60;;;26.50;62.80;;;;;;6310150;22;20153;-87
2023/08/18 01:19:27;;;;;;;0.75;0.40;;;26.50;62.70;;;;;;6309419;22;20164;-87
2023/08/18 01:21:59;;;;;;;0.40;0.40;;;26.50;62.80;;;;;;6308607;22;20497;-87
2023/08/18 01:24:29;;;;;;;0.93;0.40;;;26.50;62.70;;;;;;6306694;22;20189;-86
2023/08/18 01:26:57;;;;;;;0.30;0.30;;;26.50;62.70;;;;;;6281237;22;20195;-87
2023/08/18 01:29:27;;;;;;;0.40;0.40;;;26.40;62.60;;;;;;6305845;22;20666;-88
2023/08/18 01:31:59;;;;;;;1.20;0.40;;;26.50;62.70;;;;;;6308448;22;20173;-85
2023/08/18 01:34:30;;;;;;;0.63;0.63;;;26.40;62.90;;;;;;6309052;22;20199;-88
2023/08/18 01:37:03;;;;;;;0.60;0.57;;;26.40;62.90;;;;;;6307948;22;20165;-87
2023/08/18 01:39:35;;;;;;;0.30;0.30;;;26.40;63.20;;;;;;6307789;22;20161;-87
2023/08/18 01:42:05;;;;;;;1.30;0.55;;;26.40;63.80;;;;;;6310197;22;20145;-87
2023/08/18 01:44:34;;;;;;;1.00;0.63;;;26.40;63.80;;;;;;6310217;22;20195;-88
2023/08/18 01:47:02;;;;;;;0.77;0.73;;;26.40;64.10;;;;;;6311310;22;20172;-87
2023/08/18 01:49:30;;;;;;;0.80;0.68;;;26.30;63.90;;;;;;6308854;22;20173;-88
2023/08/18 01:52:02;;;;;;;1.55;0.68;;;26.30;63.90;;;;;;6307502;22;20269;-87
2023/08/18 01:54:30;;;;;;;0.47;0.47;;;26.30;63.80;;;;;;6308385;22;20168;-88
2023/08/18 01:57:00;;;;;;;0.55;0.50;;;26.30;64.00;;;;;;6309797;22;20244;-87
2023/08/18 01:59:29;;;;;;;1.05;0.68;;;26.30;64.10;;;;;;6303654;22;20590;-87
2023/08/18 02:01:57;;;;;;;0.40;0.40;;;26.20;63.90;;;;;;6307980;22;20547;-86
2023/08/18 02:04:27;;;;;;;1.98;1.50;;;26.20;63.90;;;;;;6306067;22;20192;-87
2023/08/18 02:06:56;;;;;;;0.22;0.22;;;26.20;63.90;;;;;;6312382;22;20176;-88
2023/08/18 02:09:25;;;;;;;1.20;0.73;;;26.20;64.20;;;;;;6308677;22;20248;-87
2023/08/18 02:11:53;;;;;;;1.67;1.27;;;26.20;64.40;;;;;;6282563;22;20176;-87
2023/08/18 02:14:23;;;;;;;0.43;0.40;;;26.20;64.40;;;;;;6307583;22;20169;-87
2023/08/18 02:16:52;;;;;;;0.45;0.45;;;26.20;64.60;;;;;;6282044;22;20157;-87
2023/08/18 02:19:20;;;;;;;0.40;0.40;;;26.10;64.60;;;;;;6306697;22;20176;-86
2023/08/18 02:21:49;;;;;;;0.45;0.45;;;26.10;64.60;;;;;;6308913;22;20161;-87
2023/08/18 02:24:17;;;;;;;0.30;0.25;;;26.10;64.50;;;;;;6306532;22;20177;-86
2023/08/18 02:26:46;;;;;;;1.05;0.95;;;26.10;64.40;;;;;;6308424;22;20650;-85
2023/08/18 02:29:15;;;;;;;0.85;0.82;;;26.10;64.70;;;;;;6309669;22;20188;-85
2023/08/18 02:31:44;;;;;;;1.20;0.95;;;26.10;64.80;;;;;;6307855;22;20224;-86
2023/08/18 02:34:13;;;;;;;0.30;0.30;;;26.00;64.90;;;;;;6280720;22;20214;-84
2023/08/18 02:36:42;;;;;;;1.15;0.82;;;26.10;65.20;;;;;;6280354;22;20169;-87
2023/08/18 02:39:11;;;;;;;0.50;0.50;;;26.10;65.30;;;;;;6282962;22;20356;-86
2023/08/18 02:41:40;;;;;;;1.50;1.42;;;26.00;65.20;;;;;;6310534;22;20173;-87
2023/08/18 02:44:08;;;;;;;0.73;0.50;;;26.00;65.30;;;;;;6309766;22;20172;-85
2023/08/18 02:46:37;;;;;;;1.55;1.08;;;26.00;65.30;;;;;;6307824;22;20270;-86
2023/08/18 02:49:07;;;;;;;0.60;0.40;;;25.90;65.20;;;;;;6309279;22;20165;-87
2023/08/18 02:51:39;;;;;;;1.35;1.27;;;26.00;65.40;;;;;;6308166;22;20169;-84
2023/08/18 02:54:09;;;;;;;0.45;0.45;;;25.90;65.30;;;;;;6310862;22;20211;-85
2023/08/18 02:56:38;;;;;;;1.55;1.10;;;25.90;65.30;;;;;;6309134;22;20170;-84
2023/08/18 02:59:06;;;;;;;3.45;1.67;;;25.90;65.60;;;;;;6312391;22;20171;-86
2023/08/18 03:01:35;;;;;;;3.33;0.73;;;25.90;65.70;;;;;;6310109;22;20168;-85
2023/08/18 03:04:03;;;;;;;0.45;0.45;;;25.80;65.80;;;;;;6282751;22;20196;-85
2023/08/18 03:06:34;;;;;;;0.40;0.40;;;25.80;65.80;;;;;;6309733;22;20216;-85
2023/08/18 03:09:03;;;;;;;0.73;0.60;;;25.80;66.20;;;;;;6308890;22;20158;-84
2023/08/18 03:11:31;;;;;;;0.70;0.70;;;25.80;66.30;;;;;;6309325;22;20244;-85
2023/08/18 03:14:03;;;;;;;0.60;0.60;;;25.80;66.60;;;;;;6281339;22;20517;-84
2023/08/18 03:16:32;;;;;;;2.30;1.42;;;25.80;67.10;;;;;;6309589;22;20164;-86
2023/08/18 03:19:01;;;;;;;0.77;0.68;;;25.80;67.60;;;;;;6282953;22;20169;-86
2023/08/18 03:21:29;;;;;;;1.00;0.93;;;25.70;67.40;;;;;;6310297;22;20193;-87
2023/08/18 03:24:02;;;;;;;1.48;0.85;;;25.70;67.80;;;;;;6310058;22;20626;-86
2023/08/18 03:26:31;;;;;;;0.50;0.50;;;25.70;68.10;;;;;;6311610;22;20219;-84
2023/08/18 03:29:02;;;;;;;1.23;0.75;;;25.60;68.30;;;;;;6308912;22;20246;-86
2023/08/18 03:31:30;;;;;;;1.65;1.13;;;25.60;68.10;;;;;;6310065;22;20162;-86
2023/08/18 03:34:02;;;;;;;0.75;0.55;;;25.60;68.20;;;;;;6309499;22;20162;-87
2023/08/18 03:36:30;;;;;;;1.95;1.23;;;25.60;68.20;;;;;;6309587;22;20217;-86
2023/08/18 03:39:00;;;;;;;0.60;0.50;;;25.60;68.30;;;;;;6282713;22;20171;-85
2023/08/18 03:41:29;;;;;;;0.73;0.73;;;25.60;68.20;;;;;;6310007;22;20172;-87
2023/08/18 03:43:58;;;;;;;1.30;1.15;;;25.60;68.30;;;;;;6309006;22;20180;-87
2023/08/18 03:46:26;;;;;;;1.02;0.93;;;25.60;68.50;;;;;;6313169;22;20191;-86
2023/08/18 03:48:55;;;;;;;0.75;0.38;;;25.60;68.50;;;;;;6311251;22;20174;-84
2023/08/18 03:51:23;;;;;;;2.42;0.68;;;25.60;68.30;;;;;;6309865;22;20251;-85
2023/08/18 03:53:52;;;;;;;0.30;0.30;;;25.60;68.50;;;;;;6309144;22;20171;-85
2023/08/18 03:56:22;;;;;;;0.43;0.43;;;25.60;68.60;;;;;;6309400;22;20213;-85
2023/08/18 03:58:51;;;;;;;0.55;0.55;;;25.60;68.80;;;;;;6308998;22;20251;-84
2023/08/18 04:01:19;;;;;;;0.90;0.88;;;25.60;68.80;;;;;;6304068;22;20173;-86
2023/08/18 04:03:50;;;;;;;0.50;0.40;;;25.60;69.00;;;;;;6300053;22;20579;-86
2023/08/18 04:06:18;;;;;;;0.32;0.32;;;25.60;68.90;;;;;;6297725;22;20197;-85
2023/08/18 04:08:47;;;;;;;2.03;1.33;;;25.60;68.90;;;;;;6304828;22;20161;-85
2023/08/18 04:11:15;;;;;;;1.48;1.35;;;25.60;69.10;;;;;;6309510;22;20169;-88
2023/08/18 04:13:45;;;;;;;13.75;1.25;;;25.60;69.50;;;;;;6309684;22;20229;-86
2023/08/18 04:16:14;;;;;;;0.50;0.50;;;25.60;69.80;;;;;;6309078;22;20173;-86
2023/08/18 04:18:42;;;;;;;1.65;1.05;;;25.60;70.00;;;;;;6309062;22;20247;-85
2023/08/18 04:21:11;;;;;;;2.05;1.45;;;25.60;70.00;;;;;;6306319;22;20165;-86
2023/08/18 04:23:39;;;;;;;0.50;0.50;;;25.60;70.10;;;;;;6308649;22;20169;-86
2023/08/18 04:26:08;;;;;;;0.70;0.70;;;25.60;70.00;;;;;;6308385;22;20185;-86
2023/08/18 04:28:37;;;;;;;0.63;0.63;;;25.60;70.10;;;;;;6306987;22;20193;-86
2023/08/18 04:31:07;;;;;;;3.50;0.70;;;25.60;70.10;;;;;;6309993;22;20165;-87
2023/08/18 04:33:36;;;;;;;0.98;0.90;;;25.60;70.10;;;;;;6308417;22;20177;-85
2023/08/18 04:36:05;;;;;;;0.73;0.73;;;25.60;70.50;;;;;;6308838;22;20169;-86
2023/08/18 04:38:33;;;;;;;1.92;1.20;;;25.60;70.40;;;;;;6308569;22;20579;-85
2023/08/18 04:41:03;;;;;;;0.50;0.50;;;25.60;70.50;;;;;;6280347;22;20175;-84
2023/08/18 04:43:32;;;;;;;0.52;0.52;;;25.70;70.20;;;;;;6280963;22;20173;-86
2023/08/18 04:46:02;;;;;;;0.75;0.60;;;25.70;70.00;;;;;;6308820;22;20177;-85
2023/08/18 04:48:32;;;;;;;1.40;0.73;;;25.70;70.10;;;;;;6257797;22;20614;-86
2023/08/18 04:51:01;;;;;;;0.63;0.32;;;25.80;69.70;;;;;;6306694;22;20199;-85
2023/08/18 04:53:29;;;;;;;1.20;0.70;;;25.80;69.80;;;;;;6305380;22;20183;-87
2023/08/18 04:56:02;;;;;;;2.25;0.75;;;25.90;69.80;;;;;;6278803;22;20169;-84
2023/08/18 04:58:31;;;;;;;0.60;0.50;;;25.90;69.50;;;;;;6307650;22;20172;-83
2023/08/18 05:01:02;;;;;;;0.43;0.43;;;26.00;69.30;;;;;;6307836;22;20181;-84
2023/08/18 05:03:33;;;;;;;1.15;0.70;;;26.00;69.30;;;;;;6309361;22;20192;-86
2023/08/18 05:06:09;;;;;;;0.93;0.85;;;26.10;69.40;;;;;;6308813;22;20160;-86
2023/08/18 05:08:39;;;;;;;3.28;1.05;;;26.10;69.70;;;;;;6309314;22;20232;-85
2023/08/18 05:11:09;;;;;;;6.65;1.15;;;26.10;69.50;;;;;;6282641;22;20161;-86
2023/08/18 05:13:41;;;;;;;1.40;1.30;;;26.20;69.60;;;;;;6309597;22;20238;-83
2023/08/18 05:16:10;;;;;;;1.15;1.05;;;26.20;69.60;;;;;;6308758;22;20159;-83
2023/08/18 05:18:40;;;;;;;0.60;0.60;;;26.30;69.50;;;;;;6309175;22;20244;-84
2023/08/18 05:21:11;;;;;;;1.98;1.00;;;26.40;69.50;;;;;;6309758;22;20161;-86
2023/08/18 05:23:40;;;;;;;1.20;0.82;;;26.40;69.70;;;;;;6309120;22;20154;-86
2023/08/18 05:26:09;;;;;;;0.30;0.30;;;26.50;69.70;;;;;;6309324;22;20156;-85
2023/08/18 05:28:37;;;;;;;0.70;0.55;;;26.50;69.70;;;;;;6306792;22;20539;-84
2023/08/18 05:31:07;;;;;;;0.95;0.88;;;26.60;69.70;;;;;;6307133;22;20183;-86
2023/08/18 05:33:36;;;;;;;1.05;0.88;;;26.60;69.70;;;;;;6283260;22;20184;-84
2023/08/18 05:36:07;;;;;;;1.27;0.68;;;26.70;69.50;;;;;;6308407;22;20188;-85
2023/08/18 05:38:36;;;;;;;0.50;0.50;;;26.70;69.50;;;;;;6281659;22;20365;-85
2023/08/18 05:41:07;;;;;;;0.70;0.40;;;26.80;70.20;;;;;;6307564;22;20183;-85
2023/08/18 05:43:39;;;;;;;0.93;0.60;;;26.80;69.20;;;;;;6310643;22;20532;-86
2023/08/18 05:46:08;;;;;;;0.77;0.40;;;26.90;69.30;;;;;;6308888;22;20645;-85
2023/08/18 05:48:38;;;;;;;1.02;0.80;;;27.00;69.10;;;;;;6310880;22;20185;-84
2023/08/18 05:51:10;;;;;;;1.40;1.00;;;27.10;69.10;;;;;;6305766;22;20198;-85
2023/08/18 05:53:38;;;;;;;1.42;0.98;;;27.10;68.90;;;;;;6308308;22;20179;-84
2023/08/18 05:56:06;;;;;;;1.50;0.77;;;27.20;68.90;;;;;;6308785;22;20169;-85
2023/08/18 05:58:35;;;;;;;0.80;0.70;;;27.20;68.80;;;;;;6309104;22;20183;-85
2023/08/18 06:01:05;;;;;;;0.57;0.57;;;27.30;68.70;;;;;;6308870;22;20255;-85
2023/08/18 06:03:34;;;;;;;0.40;0.40;;;27.30;68.50;;;;;;6308592;22;20171;-86
2023/08/18 06:06:03;;;;;;;0.57;0.57;;;27.40;68.30;;;;;;6278887;22;20180;-85
2023/08/18 06:08:35;;;;;;;1.00;0.80;;;27.50;68.30;;;;;;6307873;22;20581;-85
2023/08/18 06:11:04;;;;;;;0.80;0.60;;;27.50;68.10;;;;;;6307085;22;20173;-86
2023/08/18 06:13:33;;;;;;;0.73;0.70;;;27.50;67.80;;;;;;6285287;22;20216;-86
2023/08/18 06:16:06;;;;;;;0.80;0.75;;;27.70;67.70;;;;;;6311361;22;20160;-87
2023/08/18 06:18:34;;;;;;;1.38;1.05;;;27.70;67.50;;;;;;6312797;22;20177;-87
2023/08/18 06:21:03;;;;;;;5.28;1.13;;;27.80;67.30;;;;;;6311177;22;20229;-86
2023/08/18 06:23:35;;;;;;;1.60;0.77;;;27.80;67.20;;;;;;6313773;22;20142;-87
2023/08/18 06:26:04;;;;;;;2.05;0.65;;;27.90;67.20;;;;;;6286335;22;20176;-90
2023/08/18 06:28:32;;;;;;;0.55;0.55;;;28.00;67.00;;;;;;6311215;22;20201;-89
2023/08/18 06:31:04;;;;;;;0.50;0.50;;;28.00;66.70;;;;;;6310950;22;20169;-88
2023/08/18 06:33:39;;;;;;;1.08;0.80;;;28.10;66.30;;;;;;6309331;22;20169;-85
2023/08/18 06:36:08;;;;;;;4.75;0.68;;;28.20;66.20;;;;;;6311130;22;20231;-88
2023/08/18 06:38:39;;;;;;;8.88;0.90;;;28.20;66.00;;;;;;6313434;22;20240;-87
2023/08/18 06:41:07;;;;;;;0.77;0.73;;;28.30;65.80;;;;;;6311272;22;20198;-86
2023/08/18 06:43:36;;;;;;;0.82;0.70;;;28.40;65.80;;;;;;6312384;22;20219;-84
2023/08/18 06:46:05;;;;;;;1.85;1.08;;;28.50;65.50;;;;;;6312913;22;20641;-87
2023/08/18 06:48:34;;;;;;;0.88;0.70;;;28.60;65.40;;;;;;6312388;22;20200;-84
2023/08/18 06:51:02;;;;;;;1.73;1.23;;;28.60;65.00;;;;;;6313823;22;20176;-88
2023/08/18 06:53:30;;;;;;;6.20;1.02;;;28.80;64.80;;;;;;6313936;22;20156;-87
2023/08/18 06:56:00;;;;;;;2.65;0.70;;;28.90;65.00;;;;;;6312568;22;20196;-87
2023/08/18 06:58:31;;;;;;;0.70;0.50;;;28.90;64.20;;;;;;6312272;22;20622;-85
2023/08/18 07:01:00;;;;;;;0.30;0.30;;;29.00;64.20;;;;;;6310280;22;20226;-86
2023/08/18 07:03:28;;;;;;;0.40;0.40;;;29.00;64.10;;;;;;6310948;22;20226;-87
2023/08/18 07:05:57;;;;;;;1.00;0.60;;;29.10;63.70;;;;;;6312749;22;20193;-84
2023/08/18 07:08:29;;;;;;;1.42;0.90;;;29.20;63.70;;;;;;6286511;22;20216;-87
2023/08/18 07:10:58;;;;;;;5.53;1.58;;;29.30;63.70;;;;;;6312456;22;20181;-88
2023/08/18 07:13:29;;;;;;;0.73;0.73;;;29.40;63.60;;;;;;6312496;22;20169;-86
2023/08/18 07:15:57;;;;;;;1.52;1.35;;;29.40;63.60;;;;;;6312310;22;20685;-86
2023/08/18 07:18:26;;;;;;;0.73;0.68;;;29.50;63.50;;;;;;6312951;22;20173;-86
2023/08/18 07:20:56;;;;;;;2.67;0.68;;;29.60;62.80;;;;;;6312535;22;20623;-87
2023/08/18 07:23:24;;;;;;;0.65;0.65;;;29.70;62.60;;;;;;6311612;22;20165;-86
2023/08/18 07:25:53;;;;;;;2.63;0.93;;;29.70;62.50;;;;;;6284766;22;20244;-85
2023/08/18 07:28:21;;;;;;;1.85;0.85;;;29.80;62.20;;;;;;6310738;22;20185;-87
2023/08/18 07:30:52;;;;;;;0.90;0.75;;;29.90;62.40;;;;;;6310829;22;20162;-87
2023/08/18 07:33:21;;;;;;;0.98;0.77;;;29.90;61.50;;;;;;6312149;22;20168;-86
2023/08/18 07:35:49;;;;;;;0.82;0.73;;;29.90;61.30;;;;;;6312212;22;20637;-87
2023/08/18 07:38:18;;;;;;;0.55;0.55;;;30.00;61.70;;;;;;6312967;22;20244;-86
2023/08/18 07:40:46;;;;;;;1.38;0.82;;;30.10;61.70;;;;;;6311870;22;20171;-85
2023/08/18 07:43:15;;;;;;;0.47;0.45;;;30.20;61.10;;;;;;6310850;22;20165;-86
2023/08/18 07:45:43;;;;;;;0.55;0.38;;;30.20;61.30;;;;;;6310773;22;20171;-86
2023/08/18 07:48:13;;;;;;;1.58;0.95;;;30.30;61.10;;;;;;6311945;22;20243;-85
2023/08/18 07:50:42;;;;;;;1.02;0.80;;;30.40;61.20;;;;;;6311516;22;20240;-85
2023/08/18 07:53:10;;;;;;;1.27;0.88;;;30.40;60.60;;;;;;6307139;22;20211;-86
2023/08/18 07:55:40;;;;;;;1.08;0.40;;;30.40;60.60;;;;;;6308786;22;20169;-86
2023/08/18 07:58:08;;;;;;;0.52;0.47;;;30.50;60.50;;;;;;6283911;22;20172;-86
2023/08/18 08:00:37;;;;;;;0.65;0.52;;;30.60;60.60;;;;;;6311140;22;20173;-86
2023/08/18 08:03:05;;;;;;;0.68;0.63;;;30.60;60.50;;;;;;6284196;22;20165;-84
2023/08/18 08:05:38;;;;;;;1.05;0.82;;;30.70;60.40;;;;;;6311424;22;20169;-86
2023/08/18 08:08:07;;;;;;;3.15;1.52;;;30.80;60.50;;;;;;6312193;22;20351;-85
2023/08/18 08:10:35;;;;;;;0.40;0.40;;;30.80;60.40;;;;;;6309984;22;20220;-87
2023/08/18 08:13:04;;;;;;;1.65;1.38;;;30.90;59.90;;;;;;6310197;22;20192;-86
2023/08/18 08:15:33;;;;;;;0.63;0.47;;;30.90;59.80;;;;;;6283501;22;20166;-87
2023/08/18 08:18:05;;;;;;;0.63;0.63;;;31.00;59.70;;;;;;6285749;22;20606;-86
2023/08/18 08:20:41;;;;;;;0.85;0.82;;;31.10;59.60;;;;;;6312393;22;20215;-85
2023/08/18 08:23:09;;;;;;;0.35;0.35;;;31.10;59.40;;;;;;6311837;22;20161;-86
2023/08/18 08:25:40;;;;;;;0.45;0.45;;;31.20;59.50;;;;;;6311537;22;20165;-88
2023/08/18 08:28:09;;;;;;;0.77;0.73;;;31.20;59.30;;;;;;6312072;22;20184;-86
2023/08/18 08:30:38;;;;;;;1.38;0.70;;;31.30;58.90;;;;;;6311850;22;20153;-87
2023/08/18 08:33:08;;;;;;;0.95;0.68;;;31.40;58.90;;;;;;6284209;22;20244;-86
2023/08/18 08:35:37;;;;;;;3.10;1.50;;;31.40;58.30;;;;;;6308728;22;20173;-84
2023/08/18 08:38:07;;;;;;;1.35;0.80;;;31.40;57.70;;;;;;6309380;22;20173;-85
2023/08/18 08:40:40;;;;;;;0.73;0.73;;;31.50;58.40;;;;;;6311812;22;20157;-84
2023/08/18 08:43:09;;;;;;;0.50;0.50;;;31.50;57.10;;;;;;6308272;22;20168;-83
2023/08/18 08:45:40;;;;;;;0.68;0.55;;;31.50;57.20;;;;;;6310059;22;20157;-84
2023/08/18 08:48:12;;;;;;;2.13;1.15;;;31.60;56.70;;;;;;6310646;22;20242;-86
2023/08/18 08:50:51;;;;;;;1.25;0.85;;;31.60;57.00;;;;;;6309974;22;20157;-86
2023/08/18 08:53:29;;;;;;;3.08;1.52;;;31.70;57.20;;;;;;6283985;22;20157;-86
2023/08/18 08:56:02;;;;;;;0.40;0.40;;;31.70;56.70;;;;;;6311169;22;20141;-86
2023/08/18 08:58:37;;;;;;;1.02;0.60;;;31.80;56.80;;;;;;6310662;22;20161;-87
2023/08/18 09:01:06;;;;;;;0.60;0.57;;;31.90;56.70;;;;;;6310398;22;20497;-85
2023/08/18 09:03:36;;;;;;;1.20;1.02;;;32.00;56.00;;;;;;6310136;22;20169;-86
2023/08/18 09:06:06;;;;;;;0.77;0.52;;;32.00;55.70;;;;;;6308905;22;20166;-85
2023/08/18 09:08:36;;;;;;;1.48;0.60;;;32.10;56.10;;;;;;6308633;22;20181;-84
2023/08/18 09:11:05;;;;;;;1.00;0.68;;;32.20;55.70;;;;;;6309926;22;20181;-84
2023/08/18 09:13:35;;;;;;;0.63;0.63;;;32.20;55.50;;;;;;6309206;22;20169;-86
2023/08/18 09:16:05;;;;;;;0.70;0.70;;;32.20;55.40;;;;;;6310601;22;20197;-84
2023/08/18 09:18:34;;;;;;;0.75;0.75;;;32.40;55.30;;;;;;6310574;22;20958;-85
2023/08/18 09:21:04;;;;;;;0.98;0.70;;;32.40;55.10;;;;;;6310980;22;20169;-88
2023/08/18 09:23:34;;;;;;;1.02;0.52;;;32.50;55.10;;;;;;6310937;22;20165;-84
2023/08/18 09:26:08;;;;;;;0.77;0.68;;;32.50;53.90;;;;;;6311423;22;20192;-85
2023/08/18 09:28:36;;;;;;;3.42;1.35;;;32.50;54.30;;;;;;6311107;22;20218;-85
2023/08/18 09:31:05;;;;;;;0.98;0.98;;;32.50;53.60;;;;;;6311882;22;20161;-87
2023/08/18 09:33:38;;;;;;;0.77;0.70;;;32.60;53.80;;;;;;6309721;22;20572;-84
2023/08/18 09:36:09;;;;;;;0.82;0.82;;;32.70;53.80;;;;;;6312152;22;20172;-84
2023/08/18 09:38:41;;;;;;;1.30;0.95;;;32.70;53.30;;;;;;6310663;22;20149;-84
2023/08/18 09:41:18;;;;;;;1.00;0.70;;;32.70;53.30;;;;;;6308868;22;20199;-86
2023/08/18 09:43:55;;;;;;;0.95;0.65;;;32.80;53.60;;;;;;6308770;22;20640;-86
2023/08/18 09:46:27;;;;;;;0.93;0.77;;;32.80;52.70;;;;;;6308792;22;20161;-84
2023/08/18 09:48:59;;;;;;;1.77;1.25;;;32.90;52.50;;;;;;6306484;22;20574;-85
2023/08/18 09:51:29;;;;;;;3.17;1.98;;;33.00;52.80;;;;;;6308410;22;20168;-86
2023/08/18 09:54:00;;;;;;;0.45;0.40;;;33.10;52.60;;;;;;6280555;22;20169;-87
2023/08/18 09:56:36;;;;;;;1.48;1.05;;;33.20;52.90;;;;;;6305880;22;20176;-85
2023/08/18 09:59:13;;;;;;;0.82;0.82;;;33.30;53.10;;;;;;6308532;22;20161;-86
2023/08/18 10:01:43;;;;;;;1.00;0.50;;;33.30;52.70;;;;;;6307213;22;20172;-85
2023/08/18 10:04:12;;;;;;;0.60;0.55;;;33.40;52.70;;;;;;6306517;22;20169;-84
2023/08/18 10:06:42;;;;;;;2.22;0.75;;;33.40;52.70;;;;;;6308635;22;20211;-85
2023/08/18 10:09:12;;;;;;;1.00;0.80;;;33.50;52.60;;;;;;6308951;22;20192;-85
2023/08/18 10:11:45;;;;;;;4.35;1.20;;;33.60;52.80;;;;;;6308996;22;20248;-86
2023/08/18 10:14:23;;;;;;;0.38;0.38;;;33.60;52.30;;;;;;6307622;22;20240;-85
2023/08/18 10:16:53;;;;;;;1.42;0.75;;;33.70;52.30;;;;;;6309863;22;20169;-83
2023/08/18 10:19:46;;;;;;;1.52;1.10;;;33.70;52.30;;;;;;6308152;22;20174;-86
2023/08/18 10:22:16;;;;;;;1.08;0.70;;;33.80;52.00;;;;;;6310535;22;20200;-85
2023/08/18 10:24:46;;;;;;;1.27;0.82;;;33.90;52.20;;;;;;6309245;22;20154;-86
2023/08/18 10:27:32;;;;;;;4.47;1.27;;;33.90;52.30;;;;;;6307567;22;20154;-85
2023/08/18 10:30:02;;;;;;;0.60;0.55;;;34.00;51.20;;;;;;6308436;22;20860;-85
2023/08/18 10:32:33;;;;;;;0.98;0.85;;;34.10;51.40;;;;;;6308792;22;20622;-83
2023/08/18 10:35:19;;;;;;;1.00;0.90;;;34.10;51.40;;;;;;6283737;22;20169;-84
2023/08/18 10:37:50;;;;;;;0.52;0.40;;;34.20;51.60;;;;;;6310756;22;20200;-86
2023/08/18 10:40:26;;;;;;;1.42;0.90;;;34.30;51.30;;;;;;6309622;22;20165;-82
2023/08/18 10:43:07;;;;;;;1.65;1.25;;;34.40;50.90;;;;;;6312211;22;20241;-88
2023/08/18 10:45:37;;;;;;;3.35;1.00;;;34.40;50.00;;;;;;6310734;22;20458;-84
2023/08/18 10:48:07;;;;;;;1.67;1.10;;;34.50;49.50;;;;;;6308374;22;20176;-84
2023/08/18 10:50:38;;;;;;;1.10;0.95;;;34.60;50.00;;;;;;6310907;22;20185;-85
2023/08/18 10:53:07;;;;;;;1.65;1.17;;;34.60;50.00;;;;;;6310409;22;20275;-84
2023/08/18 10:55:36;;;;;;;0.70;0.55;;;34.70;49.70;;;;;;6312874;22;20176;-85
2023/08/18 10:58:06;;;;;;;1.00;0.90;;;34.70;50.00;;;;;;6280188;22;20177;-84
2023/08/18 11:00:38;;;;;;;0.38;0.38;;;34.70;49.70;;;;;;6309197;22;20223;-85
2023/08/18 11:03:08;;;;;;;0.38;0.38;;;34.70;49.20;;;;;;6282334;22;20169;-85
2023/08/18 11:05:38;;;;;;;1.98;1.20;;;34.70;48.50;;;;;;6305937;22;20226;-84
2023/08/18 11:08:09;;;;;;;0.68;0.65;;;34.80;49.00;;;;;;6308160;22;20169;-84
2023/08/18 11:10:40;;;;;;;0.40;0.40;;;34.80;48.30;;;;;;6307977;22;20203;-84
2023/08/18 11:13:13;;;;;;;2.83;1.67;;;34.90;48.50;;;;;;6309558;22;20153;-83
2023/08/18 11:15:43;;;;;;;0.80;0.80;;;34.90;48.90;;;;;;6308276;22;20207;-83
2023/08/18 11:18:11;;;;;;;0.40;0.40;;;34.90;48.40;;;;;;6310009;22;20466;-82
2023/08/18 11:20:41;;;;;;;1.15;1.00;;;35.00;48.60;;;;;;6308919;22;20172;-83
2023/08/18 11:23:10;;;;;;;1.35;0.60;;;35.00;48.60;;;;;;6308572;22;20172;-83
2023/08/18 11:25:39;;;;;;;1.52;0.73;;;35.00;48.40;;;;;;6308611;22;20176;-83
2023/08/18 11:28:08;;;;;;;2.33;0.70;;;35.00;48.50;;;;;;6307346;22;20165;-84
2023/08/18 11:30:39;;;;;;;0.85;0.85;;;35.10;48.80;;;;;;6307286;22;20669;-83
2023/08/18 11:33:07;;;;;;;1.88;0.75;;;35.00;48.60;;;;;;6308967;22;20548;-83
2023/08/18 11:35:37;;;;;;;3.63;1.15;;;35.00;48.60;;;;;;6310034;22;20169;-83
2023/08/18 11:38:11;;;;;;;0.77;0.57;;;35.00;48.50;;;;;;6309495;22;20160;-83
2023/08/18 11:40:42;;;;;;;1.58;0.80;;;35.00;48.20;;;;;;6307929;22;20172;-81
2023/08/18 11:43:12;;;;;;;0.85;0.55;;;35.00;48.50;;;;;;6309708;22;20210;-83
2023/08/18 11:45:42;;;;;;;1.17;0.70;;;35.10;48.70;;;;;;6310387;22;20161;-83
2023/08/18 11:48:13;;;;;;;1.00;0.85;;;35.10;48.40;;;;;;6311548;22;20619;-86
2023/08/18 11:50:43;;;;;;;0.73;0.52;;;35.20;48.40;;;;;;6310731;22;20195;-83
2023/08/18 11:53:12;;;;;;;1.05;0.80;;;35.20;48.00;;;;;;6281845;22;20208;-84
2023/08/18 11:55:42;;;;;;;2.33;1.42;;;35.30;48.30;;;;;;6306855;22;20343;-84
2023/08/18 11:58:14;;;;;;;0.77;0.73;;;35.30;48.40;;;;;;6311237;22;20158;-84
2023/08/18 12:00:48;;;;;;;1.27;1.17;;;35.20;48.40;;;;;;6281675;22;20260;-84
2023/08/18 12:03:21;;;;;;;1.95;1.52;;;35.10;48.30;;;;;;6307882;22;20600;-86
2023/08/18 12:05:50;;;;;;;0.70;0.65;;;35.00;47.70;;;;;;6308133;22;20211;-82
2023/08/18 12:08:19;;;;;;;0.82;0.68;;;34.90;47.80;;;;;;6311005;22;20505;-84
2023/08/18 12:10:53;;;;;;;1.55;1.27;;;34.80;47.80;;;;;;6308468;22;20275;-83
2023/08/18 12:13:23;;;;;;;1.70;0.75;;;34.80;48.10;;;;;;6307114;22;20161;-83
2023/08/18 12:15:53;;;;;;;2.17;1.23;;;34.70;48.40;;;;;;6307074;22;20618;-85
2023/08/18 12:18:21;;;;;;;0.55;0.50;;;34.60;48.70;;;;;;6280662;22;20243;-84
2023/08/18 12:20:51;;;;;;;0.77;0.70;;;34.60;48.80;;;;;;6308845;22;20909;-84
2023/08/18 12:23:20;;;;;;;0.98;0.63;;;34.50;48.90;;;;;;6280817;22;20617;-84
2023/08/18 12:25:50;;;;;;;2.33;1.20;;;34.50;49.00;;;;;;6306653;22;20165;-80
2023/08/18 12:28:22;;;;;;;4.38;1.02;;;34.40;49.10;;;;;;6307946;22;20141;-83
2023/08/18 12:30:52;;;;;;;1.30;0.75;;;34.40;49.20;;;;;;6308202;22;20514;-85
2023/08/18 12:33:23;;;;;;;0.90;0.80;;;34.40;49.30;;;;;;6310839;22;20483;-85
2023/08/18 12:35:53;;;;;;;1.75;1.45;;;34.30;49.30;;;;;;6307829;22;20188;-82
2023/08/18 12:38:21;;;;;;;0.85;0.75;;;34.30;49.40;;;;;;6308102;22;20295;-84
2023/08/18 12:40:50;;;;;;;1.05;0.70;;;34.30;49.50;;;;;;6307813;22;20177;-83
2023/08/18 12:43:19;;;;;;;2.63;0.80;;;34.30;49.70;;;;;;6306565;22;20165;-83
2023/08/18 12:45:47;;;;;;;1.02;0.52;;;34.20;49.60;;;;;;6305807;22;20166;-85
2023/08/18 12:48:17;;;;;;;0.77;0.75;;;34.10;49.00;;;;;;6308654;22;20619;-80
2023/08/18 12:50:45;;;;;;;1.27;0.88;;;34.10;49.20;;;;;;6307737;22;20630;-82
2023/08/18 12:53:14;;;;;;;0.73;0.63;;;34.10;49.40;;;;;;6305659;22;20192;-84
2023/08/18 12:55:42;;;;;;;0.90;0.60;;;34.10;49.70;;;;;;6307801;22;20944;-82
2023/08/18 12:58:10;;;;;;;2.13;1.40;;;34.10;49.80;;;;;;6304874;22;20529;-82
2023/08/18 13:00:39;;;;;;;2.55;1.58;;;34.20;49.70;;;;;;6306639;22;20149;-83
2023/08/18 13:03:07;;;;;;;2.58;1.38;;;34.20;49.60;;;;;;6305261;22;20252;-82